Nearby METAR Reports

 

LELL - Sabadell, Spain
Distance from station: O 18km
aktuell: 01/01/1970 01:00
NOT Current
unable to load LELL data RC=404 Not Found
unable to load LELL data RC=404 Not Found
 
LEBL - Barcelona Airpor, Spain
Distance from station: SSO 33km
aktuell: 25/05/2018 04:30
Few Clouds
Few Clouds
 Wind von NNO
Wind: NNO 17 km/h
Temperatur: 18°C
Taupunkt: 13°C
Luftfeuchte: 73%
Luftdruck: 1014 hPa
Clouds: Few Clouds
Visibility: 10 km
Cloud details: Few Clouds 1219 m
2018/05/25 02:30 LEBL 250230Z 03009KT 9999 FEW040 18/13 Q1014 NOSIG
LERS - Reus (civ/Mil), Spain
Distance from station: SW 75km
aktuell: 25/05/2018 04:30
Nearby thunderstorm, Thunderstorm
Nearby thunderstorm, Thunderstorm
 Wind von N
Wind: N 15 km/h
Temperatur: 20°C
Taupunkt: 10°C
Luftfeuchte: 53%
Luftdruck: 1014 hPa
Zusammenfassung: Nearby Thunderstorm
Clouds: Thunderstorm
Visibility: 10 km
2018/05/25 02:30 LERS 250230Z AUTO 36008KT 9999 VCTS ///CB 20/10 Q1014
 
LEGE - Gerona/Costa Bra, Spain
Distance from station: ONO 83km
aktuell: 25/05/2018 04:30
teilweise bewölkt
teilweise bewölkt
 Wind von calm
Wind: Windstill
Temperatur: 12°C
Taupunkt: 12°C
Luftfeuchte: 100%
Luftdruck: 1016 hPa
Clouds: teilweise bewölkt
Visibility: 9 km
2018/05/25 02:30 LEGE 250230Z 00000KT 9000 NSC 12/12 Q1016
LFMP - Perpignan/Rivesa, France
Distance from station: NNO 155km
aktuell: 25/05/2018 04:30
stark bewölkt
stark bewölkt
 Wind von NO
Wind: NO 4 km/h
Temperatur: 17°C
Taupunkt: 15°C
Luftfeuchte: 88%
Luftdruck: 1016 hPa
Clouds: stark bewölkt
Visibility: 8 km
Cloud details: stark bewölkt 610 m
2018/05/25 02:30 LFMP 250230Z AUTO 05002KT 8000 BKN020 17/15 Q1016 TEMPO BKN008
LFMK - Carcassonne/Salv, France
Distance from station: N 191km
aktuell: 25/05/2018 04:30
stark bewölkt
stark bewölkt
 Wind von OSO
Wind: OSO 11 km/h
Temperatur: 16°C
Taupunkt: 15°C
Luftfeuchte: 94%
Luftdruck: 1015 hPa
Clouds: stark bewölkt
Visibility: 9 km
Cloud details: stark bewölkt 244 m
stark bewölkt 427 m
2018/05/25 02:30 LFMK 250230Z AUTO 11006KT 080V160 9000 BKN008 BKN014 16/15 Q1015 NOSIG
 
LEHC - Huesca-Pirineos, Spain
Distance from station: WNW 193km
aktuell: 25/05/2018 04:30
klar
klar
 Wind von OSO
Wind: OSO 7 km/h
Temperatur: 15°C
Taupunkt: 9°C
Luftfeuchte: 68%
Luftdruck: 1016 hPa
Zusammenfassung: klar
Visibility: greater than 10 km
2018/05/25 02:30 LEHC 250230Z AUTO 11004KT 080V150 CAVOK 15/09 Q1016
LFMU - Beziers/Vias, France
Distance from station: NNO 232km
aktuell: 25/05/2018 04:30
Mist, stark bewölkt
Mist, stark bewölkt
 Wind von NNO
Wind: NNO 9 km/h
Temperatur: 15°C
Taupunkt: 14°C
Luftfeuchte: 94%
Luftdruck: 1016 hPa
Zusammenfassung: Mist
Clouds: stark bewölkt
Visibility: 5 km
Cloud details: stark bewölkt 244 m
2018/05/25 02:30 LFMU 250230Z AUTO 03005KT 4800 BR BKN008 15/14 Q1016 TEMPO 2000 BR
LEPA - Palma De Mallorc, Spain
Distance from station: SSO 233km
aktuell: 25/05/2018 04:30
Few Clouds
Few Clouds
 Wind von ONO
Wind: ONO 19 km/h
Temperatur: 20°C
Taupunkt: 11°C
Luftfeuchte: 56%
Luftdruck: 1013 hPa
Clouds: Few Clouds
Visibility: 10 km
Cloud details: Few Clouds 762 m
2018/05/25 02:30 LEPA 250230Z 06010KT 9999 FEW025 20/11 Q1013 NOSIG
 
LFBO - Toulouse/Blagnac, France
Distance from station: N 236km
aktuell: 25/05/2018 04:30
stark bewölkt
stark bewölkt
 Wind von SO
Wind: SO 13 km/h
Temperatur: 17°C
Taupunkt: 15°C
Luftfeuchte: 88%
Luftdruck: 1015 hPa
Clouds: stark bewölkt
Visibility: 7 km
Cloud details: stark bewölkt 244 m
2018/05/25 02:30 LFBO 250230Z AUTO 13007KT 7000 BKN008 17/15 Q1015 NOSIG
LFBT - Tarbes/Ossun, France
Distance from station: NW 239km
aktuell: 25/05/2018 04:30
klar
klar
 Wind von varies
Wind: varies 4 km/h
Temperatur: 14°C
Taupunkt: 13°C
Luftfeuchte: 94%
Luftdruck: 1015 hPa
Zusammenfassung: klar
Visibility: greater than 10 km
2018/05/25 02:30 LFBT 250230Z AUTO VRB02KT CAVOK 14/13 Q1015 TEMPO BKN012
LEZG - Zaragoza (mil/Ci, Spain
Distance from station: W 242km
aktuell: 25/05/2018 04:30
Few Clouds
Few Clouds
 Wind von OSO
Wind: OSO 6 km/h
Temperatur: 19°C
Taupunkt: 9°C
Luftfeuchte: 52%
Luftdruck: 1014 hPa
Clouds: Few Clouds
Visibility: 10 km
Cloud details: Few Clouds 1524 m
2018/05/25 02:30 LEZG 250230Z 12003KT 080V180 9999 FEW050 19/09 Q1014